Holmes Beach, Florida
Current Conditions -  °F | °C
As of 3:53 PM on Tuesday 21 Oct 2014 (Local Time) from KSRQ Reporting Station
Clear Clear  
Wind Chill: 82°   Ceiling: Unl
Heat Index: 84°   Visibility: 10mi
Dew Point: 67°   Wind: 6mph
Humidity: 60%   Direction: 280°W
Pressure: 29.89"   Gusts: NA
Location:  27.5°N, 82.71°W
Report Text: KSRQ 211953Z AUTO 28005KT 10SM CLR 28/19 A2989 RMK AO2 SLP121 T02780194
Loading
Personal Weather Stations






























Interactive Weather Map
Tropical Storm Tracking
New forecast layout! Learn more

10-Day Weather Forecast

Advertisements
Track Severe Weather on mobile